Griggsville, Illinois
Current Conditions -  °F | °C
As of 3:55 AM on Monday 22 Dec 2014 (Local Time) from KPPQ Reporting Station
Overcast Overcast  
Wind Chill: 34°   Ceiling: 4200
Heat Index: 40°   Visibility: 10mi
Dew Point: 33°   Wind: 8mph
Humidity: 79%   Direction: 120°ESE
Pressure: 29.83"   Gusts: NA
Location:  39.71°N, 90.72°W
Report Text: KPPQ 220955Z AUTO 12007KT 10SM OVC042 04/01 A2983 RMK AO2 T00420008
Loading
Personal Weather Stations






























Interactive Weather Map New forecast layout! Learn more

10-Day Weather Forecast

Advertisements
Track Severe Weather on mobile